sensor_id;sensor_type;location;lat;lon;timestamp;P1;durP1;ratioP1;P2;durP2;ratioP2
61960;SDS011;47923;42.506;24.192;2022-09-09T03:14:00;13.10;;;10.45;;
61960;SDS011;47923;42.506;24.192;2022-09-09T16:20:15;8.88;;;5.03;;
61960;SDS011;47923;42.506;24.192;2022-09-09T16:22:40;8.18;;;4.38;;
61960;SDS011;47923;42.506;24.192;2022-09-09T16:25:07;9.02;;;5.03;;
61960;SDS011;47923;42.506;24.192;2022-09-09T16:27:33;10.70;;;4.95;;
61960;SDS011;47923;42.506;24.192;2022-09-09T16:29:59;9.30;;;4.68;;
61960;SDS011;47923;42.506;24.192;2022-09-09T16:32:24;9.52;;;5.15;;
61960;SDS011;47923;42.506;24.192;2022-09-09T16:34:50;13.38;;;5.30;;
61960;SDS011;47923;42.506;24.192;2022-09-09T16:37:15;8.48;;;5.47;;
61960;SDS011;47923;42.506;24.192;2022-09-09T16:39:42;9.77;;;5.32;;
61960;SDS011;47923;42.506;24.192;2022-09-09T16:42:08;10.57;;;5.53;;
61960;SDS011;47923;42.506;24.192;2022-09-09T16:44:34;11.60;;;5.07;;
61960;SDS011;47923;42.506;24.192;2022-09-09T16:47:00;9.52;;;4.97;;
61960;SDS011;47923;42.506;24.192;2022-09-09T16:49:25;8.80;;;5.22;;
61960;SDS011;47923;42.506;24.192;2022-09-09T16:51:53;9.85;;;5.15;;
61960;SDS011;47923;42.506;24.192;2022-09-09T16:54:18;17.08;;;6.32;;
61960;SDS011;47923;42.506;24.192;2022-09-09T16:56:46;12.10;;;5.55;;
61960;SDS011;47923;42.506;24.192;2022-09-09T16:59:16;10.70;;;6.03;;
61960;SDS011;47923;42.506;24.192;2022-09-09T17:01:43;10.52;;;5.20;;
61960;SDS011;47923;42.506;24.192;2022-09-09T17:04:15;10.23;;;5.55;;
61960;SDS011;47923;42.506;24.192;2022-09-09T17:06:45;9.75;;;5.72;;
61960;SDS011;47923;42.506;24.192;2022-09-09T17:09:16;13.25;;;6.05;;
61960;SDS011;47923;42.506;24.192;2022-09-09T17:15:13;9.82;;;6.15;;
61960;SDS011;47923;42.506;24.192;2022-09-09T17:17:43;11.30;;;5.65;;
61960;SDS011;47923;42.506;24.192;2022-09-09T17:20:27;10.50;;;5.47;;
61960;SDS011;47923;42.506;24.192;2022-09-09T17:29:39;16.10;;;6.40;;
61960;SDS011;47923;42.506;24.192;2022-09-09T17:32:08;11.85;;;6.63;;
61960;SDS011;47923;42.506;24.192;2022-09-09T17:34:36;10.75;;;5.85;;
61960;SDS011;47923;42.506;24.192;2022-09-09T17:37:03;11.75;;;6.35;;
61960;SDS011;47923;42.506;24.192;2022-09-09T17:39:33;9.15;;;6.32;;
61960;SDS011;47923;42.506;24.192;2022-09-09T17:42:06;9.32;;;5.80;;
61960;SDS011;47923;42.506;24.192;2022-09-09T17:44:37;9.07;;;5.65;;
61960;SDS011;47923;42.506;24.192;2022-09-09T17:47:18;9.52;;;6.35;;
61960;SDS011;47923;42.506;24.192;2022-09-09T17:49:43;12.65;;;6.60;;
61960;SDS011;47923;42.506;24.192;2022-09-09T17:52:09;10.77;;;5.10;;
61960;SDS011;47923;42.506;24.192;2022-09-09T17:54:40;11.55;;;5.85;;
61960;SDS011;47923;42.506;24.192;2022-09-09T17:57:09;11.70;;;5.93;;
61960;SDS011;47923;42.506;24.192;2022-09-09T17:59:34;8.10;;;5.72;;
61960;SDS011;47923;42.506;24.192;2022-09-09T18:02:00;10.32;;;6.68;;
61960;SDS011;47923;42.506;24.192;2022-09-09T18:04:29;8.95;;;5.85;;
61960;SDS011;47923;42.506;24.192;2022-09-09T18:06:56;8.90;;;6.18;;
61960;SDS011;47923;42.506;24.192;2022-09-09T18:09:24;11.30;;;6.03;;
61960;SDS011;47923;42.506;24.192;2022-09-09T18:11:52;10.63;;;6.18;;
61960;SDS011;47923;42.506;24.192;2022-09-09T18:14:21;8.60;;;5.85;;
61960;SDS011;47923;42.506;24.192;2022-09-09T18:16:54;10.05;;;6.25;;
61960;SDS011;47923;42.506;24.192;2022-09-09T18:19:22;9.38;;;6.05;;
61960;SDS011;47923;42.506;24.192;2022-09-09T18:21:49;9.85;;;5.70;;
61960;SDS011;47923;42.506;24.192;2022-09-09T18:24:15;9.18;;;6.47;;
61960;SDS011;47923;42.506;24.192;2022-09-09T18:26:43;11.38;;;7.25;;
61960;SDS011;47923;42.506;24.192;2022-09-09T18:29:13;10.38;;;6.22;;
61960;SDS011;47923;42.506;24.192;2022-09-09T18:31:40;8.90;;;5.50;;
61960;SDS011;47923;42.506;24.192;2022-09-09T18:34:14;7.85;;;5.72;;
61960;SDS011;47923;42.506;24.192;2022-09-09T18:36:51;9.40;;;6.72;;
61960;SDS011;47923;42.506;24.192;2022-09-09T18:39:19;9.77;;;6.97;;
61960;SDS011;47923;42.506;24.192;2022-09-09T18:41:50;11.18;;;6.55;;
61960;SDS011;47923;42.506;24.192;2022-09-09T18:44:24;11.45;;;7.22;;
61960;SDS011;47923;42.506;24.192;2022-09-09T18:46:54;10.10;;;6.85;;
61960;SDS011;47923;42.506;24.192;2022-09-09T18:49:21;10.52;;;6.35;;
61960;SDS011;47923;42.506;24.192;2022-09-09T18:51:50;10.20;;;7.03;;
61960;SDS011;47923;42.506;24.192;2022-09-09T18:54:17;10.63;;;7.68;;
61960;SDS011;47923;42.506;24.192;2022-09-09T18:56:45;12.02;;;6.80;;
61960;SDS011;47923;42.506;24.192;2022-09-09T18:59:16;12.65;;;7.25;;
61960;SDS011;47923;42.506;24.192;2022-09-09T19:01:46;11.60;;;7.60;;
61960;SDS011;47923;42.506;24.192;2022-09-09T19:04:12;11.52;;;6.80;;
61960;SDS011;47923;42.506;24.192;2022-09-09T19:06:41;11.68;;;7.32;;
61960;SDS011;47923;42.506;24.192;2022-09-09T19:09:15;10.25;;;7.22;;
61960;SDS011;47923;42.506;24.192;2022-09-09T19:11:42;14.48;;;7.18;;
61960;SDS011;47923;42.506;24.192;2022-09-09T19:14:10;10.45;;;7.43;;
61960;SDS011;47923;42.506;24.192;2022-09-09T19:16:37;10.30;;;7.43;;
61960;SDS011;47923;42.506;24.192;2022-09-09T19:19:06;11.05;;;7.85;;
61960;SDS011;47923;42.506;24.192;2022-09-09T19:21:36;11.18;;;7.38;;
61960;SDS011;47923;42.506;24.192;2022-09-09T19:24:15;14.40;;;8.60;;
61960;SDS011;47923;42.506;24.192;2022-09-09T19:26:46;10.93;;;8.27;;
61960;SDS011;47923;42.506;24.192;2022-09-09T19:29:18;12.77;;;8.75;;
61960;SDS011;47923;42.506;24.192;2022-09-09T19:31:55;11.65;;;8.15;;
61960;SDS011;47923;42.506;24.192;2022-09-09T19:34:26;13.20;;;8.90;;
61960;SDS011;47923;42.506;24.192;2022-09-09T19:36:51;12.80;;;7.88;;
61960;SDS011;47923;42.506;24.192;2022-09-09T19:39:17;11.02;;;7.97;;
61960;SDS011;47923;42.506;24.192;2022-09-09T19:41:43;10.80;;;7.55;;
61960;SDS011;47923;42.506;24.192;2022-09-09T19:44:14;9.13;;;6.78;;
61960;SDS011;47923;42.506;24.192;2022-09-09T19:46:42;9.77;;;6.45;;
61960;SDS011;47923;42.506;24.192;2022-09-09T19:49:09;8.98;;;6.90;;
61960;SDS011;47923;42.506;24.192;2022-09-09T19:51:38;10.98;;;7.00;;
61960;SDS011;47923;42.506;24.192;2022-09-09T19:54:14;11.80;;;7.57;;
61960;SDS011;47923;42.506;24.192;2022-09-09T19:56:40;10.65;;;8.05;;
61960;SDS011;47923;42.506;24.192;2022-09-09T19:59:09;11.48;;;8.30;;
61960;SDS011;47923;42.506;24.192;2022-09-09T20:01:41;13.82;;;7.70;;
61960;SDS011;47923;42.506;24.192;2022-09-09T20:04:10;10.02;;;7.47;;
61960;SDS011;47923;42.506;24.192;2022-09-09T20:06:39;12.00;;;7.30;;
61960;SDS011;47923;42.506;24.192;2022-09-09T20:09:07;10.93;;;7.65;;
61960;SDS011;47923;42.506;24.192;2022-09-09T20:11:36;8.73;;;6.93;;
61960;SDS011;47923;42.506;24.192;2022-09-09T20:14:03;10.10;;;7.55;;
61960;SDS011;47923;42.506;24.192;2022-09-09T20:16:29;12.43;;;7.97;;
61960;SDS011;47923;42.506;24.192;2022-09-09T20:18:56;10.57;;;7.18;;
61960;SDS011;47923;42.506;24.192;2022-09-09T20:21:26;10.15;;;7.85;;
61960;SDS011;47923;42.506;24.192;2022-09-09T20:23:57;11.02;;;7.93;;
61960;SDS011;47923;42.506;24.192;2022-09-09T20:26:25;13.32;;;8.07;;
61960;SDS011;47923;42.506;24.192;2022-09-09T20:28:53;10.55;;;7.25;;
61960;SDS011;47923;42.506;24.192;2022-09-09T20:33:50;10.98;;;7.10;;
61960;SDS011;47923;42.506;24.192;2022-09-09T20:38:54;9.27;;;6.63;;
61960;SDS011;47923;42.506;24.192;2022-09-09T20:41:22;11.85;;;6.90;;
61960;SDS011;47923;42.506;24.192;2022-09-09T20:43:52;10.48;;;6.93;;
61960;SDS011;47923;42.506;24.192;2022-09-09T20:46:26;15.00;;;7.82;;
61960;SDS011;47923;42.506;24.192;2022-09-09T20:48:54;10.98;;;8.15;;
61960;SDS011;47923;42.506;24.192;2022-09-09T20:51:21;10.73;;;8.25;;
61960;SDS011;47923;42.506;24.192;2022-09-09T20:53:58;10.30;;;7.95;;
61960;SDS011;47923;42.506;24.192;2022-09-09T20:56:27;12.57;;;8.57;;
61960;SDS011;47923;42.506;24.192;2022-09-09T20:58:56;11.20;;;8.30;;
61960;SDS011;47923;42.506;24.192;2022-09-09T21:01:22;11.98;;;8.75;;
61960;SDS011;47923;42.506;24.192;2022-09-09T21:03:50;11.48;;;8.73;;
61960;SDS011;47923;42.506;24.192;2022-09-09T21:06:17;13.80;;;8.32;;
61960;SDS011;47923;42.506;24.192;2022-09-09T21:08:44;13.23;;;7.85;;
61960;SDS011;47923;42.506;24.192;2022-09-09T21:11:11;10.65;;;7.22;;
61960;SDS011;47923;42.506;24.192;2022-09-09T21:13:38;12.10;;;7.90;;
61960;SDS011;47923;42.506;24.192;2022-09-09T21:16:04;10.10;;;7.63;;
61960;SDS011;47923;42.506;24.192;2022-09-09T21:18:34;13.05;;;8.57;;
61960;SDS011;47923;42.506;24.192;2022-09-09T21:21:03;14.88;;;9.13;;
61960;SDS011;47923;42.506;24.192;2022-09-09T21:23:29;10.65;;;7.25;;
61960;SDS011;47923;42.506;24.192;2022-09-09T21:25:56;12.20;;;8.27;;
61960;SDS011;47923;42.506;24.192;2022-09-09T21:28:22;10.00;;;7.72;;
61960;SDS011;47923;42.506;24.192;2022-09-09T21:30:50;11.52;;;6.85;;
61960;SDS011;47923;42.506;24.192;2022-09-09T21:33:20;11.10;;;7.18;;
61960;SDS011;47923;42.506;24.192;2022-09-09T21:35:48;10.52;;;7.07;;
61960;SDS011;47923;42.506;24.192;2022-09-09T21:38:16;10.88;;;6.95;;
61960;SDS011;47923;42.506;24.192;2022-09-09T21:40:43;10.23;;;7.03;;
61960;SDS011;47923;42.506;24.192;2022-09-09T21:43:10;9.40;;;6.75;;
61960;SDS011;47923;42.506;24.192;2022-09-09T21:45:39;10.18;;;6.80;;
61960;SDS011;47923;42.506;24.192;2022-09-09T21:48:06;9.40;;;6.82;;
61960;SDS011;47923;42.506;24.192;2022-09-09T21:50:41;9.20;;;7.05;;
61960;SDS011;47923;42.506;24.192;2022-09-09T21:53:11;13.38;;;8.07;;
61960;SDS011;47923;42.506;24.192;2022-09-09T21:55:38;12.15;;;7.18;;
61960;SDS011;47923;42.506;24.192;2022-09-09T21:58:06;9.25;;;7.00;;
61960;SDS011;47923;42.506;24.192;2022-09-09T22:00:33;11.68;;;6.43;;
61960;SDS011;47923;42.506;24.192;2022-09-09T22:02:59;9.10;;;6.57;;
61960;SDS011;47923;42.506;24.192;2022-09-09T22:05:27;10.15;;;6.13;;
61960;SDS011;47923;42.506;24.192;2022-09-09T22:08:03;10.05;;;6.60;;
61960;SDS011;47923;42.506;24.192;2022-09-09T22:10:31;12.23;;;7.68;;
61960;SDS011;47923;42.506;24.192;2022-09-09T22:12:59;11.07;;;7.45;;
61960;SDS011;47923;42.506;24.192;2022-09-09T22:15:25;11.50;;;7.63;;
61960;SDS011;47923;42.506;24.192;2022-09-09T22:17:51;11.00;;;8.40;;
61960;SDS011;47923;42.506;24.192;2022-09-09T22:20:17;10.40;;;6.88;;
61960;SDS011;47923;42.506;24.192;2022-09-09T22:22:43;10.07;;;6.63;;
61960;SDS011;47923;42.506;24.192;2022-09-09T22:25:09;11.68;;;6.68;;
61960;SDS011;47923;42.506;24.192;2022-09-09T22:27:37;10.32;;;6.80;;
61960;SDS011;47923;42.506;24.192;2022-09-09T22:30:03;10.98;;;7.50;;
61960;SDS011;47923;42.506;24.192;2022-09-09T22:32:29;9.80;;;7.28;;
61960;SDS011;47923;42.506;24.192;2022-09-09T22:34:55;12.05;;;7.82;;
61960;SDS011;47923;42.506;24.192;2022-09-09T22:37:21;8.73;;;6.78;;
61960;SDS011;47923;42.506;24.192;2022-09-09T22:39:47;12.25;;;7.40;;
61960;SDS011;47923;42.506;24.192;2022-09-09T22:42:13;10.60;;;7.10;;
61960;SDS011;47923;42.506;24.192;2022-09-09T22:44:39;9.27;;;6.30;;
61960;SDS011;47923;42.506;24.192;2022-09-09T22:47:05;12.10;;;8.18;;
61960;SDS011;47923;42.506;24.192;2022-09-09T22:49:34;11.40;;;8.10;;
61960;SDS011;47923;42.506;24.192;2022-09-09T22:52:01;11.15;;;8.15;;
61960;SDS011;47923;42.506;24.192;2022-09-09T22:54:29;11.32;;;7.75;;
61960;SDS011;47923;42.506;24.192;2022-09-09T22:56:57;12.15;;;7.95;;
61960;SDS011;47923;42.506;24.192;2022-09-09T22:59:23;12.35;;;8.38;;
61960;SDS011;47923;42.506;24.192;2022-09-09T23:01:52;11.98;;;8.18;;
61960;SDS011;47923;42.506;24.192;2022-09-09T23:04:21;10.70;;;8.13;;
61960;SDS011;47923;42.506;24.192;2022-09-09T23:06:49;11.73;;;8.57;;
61960;SDS011;47923;42.506;24.192;2022-09-09T23:09:15;10.43;;;8.35;;
61960;SDS011;47923;42.506;24.192;2022-09-09T23:11:43;10.15;;;7.57;;
61960;SDS011;47923;42.506;24.192;2022-09-09T23:14:12;9.38;;;7.30;;
61960;SDS011;47923;42.506;24.192;2022-09-09T23:16:39;12.93;;;7.57;;
61960;SDS011;47923;42.506;24.192;2022-09-09T23:19:09;10.18;;;8.07;;
61960;SDS011;47923;42.506;24.192;2022-09-09T23:21:40;14.38;;;8.15;;
61960;SDS011;47923;42.506;24.192;2022-09-09T23:24:07;11.48;;;6.93;;
61960;SDS011;47923;42.506;24.192;2022-09-09T23:26:35;10.40;;;7.50;;
61960;SDS011;47923;42.506;24.192;2022-09-09T23:29:02;11.43;;;8.23;;
61960;SDS011;47923;42.506;24.192;2022-09-09T23:31:30;11.10;;;7.53;;
61960;SDS011;47923;42.506;24.192;2022-09-09T23:33:58;11.63;;;8.05;;
61960;SDS011;47923;42.506;24.192;2022-09-09T23:36:25;14.10;;;8.65;;
61960;SDS011;47923;42.506;24.192;2022-09-09T23:38:54;11.07;;;8.85;;
61960;SDS011;47923;42.506;24.192;2022-09-09T23:41:30;13.43;;;8.68;;
61960;SDS011;47923;42.506;24.192;2022-09-09T23:43:57;10.15;;;8.00;;
61960;SDS011;47923;42.506;24.192;2022-09-09T23:46:26;12.63;;;8.15;;
61960;SDS011;47923;42.506;24.192;2022-09-09T23:48:58;10.93;;;7.45;;
61960;SDS011;47923;42.506;24.192;2022-09-09T23:51:29;11.38;;;8.20;;
61960;SDS011;47923;42.506;24.192;2022-09-09T23:53:59;10.90;;;7.68;;
61960;SDS011;47923;42.506;24.192;2022-09-09T23:56:33;11.18;;;8.00;;
61960;SDS011;47923;42.506;24.192;2022-09-09T23:59:03;11.82;;;8.13;;
